createdAt,value
2023-05-24T00:00:18.034Z,40.25
2023-05-24T00:01:23.760Z,40.24
2023-05-24T00:02:34.408Z,40.25
2023-05-24T00:03:38.766Z,40.24
2023-05-24T00:04:41.897Z,40.26
2023-05-24T00:05:47.293Z,40.25
2023-05-24T00:06:51.325Z,40.27
2023-05-24T00:07:54.479Z,40.26
2023-05-24T00:08:57.578Z,40.24
2023-05-24T00:10:00.640Z,40.27
2023-05-24T00:11:05.691Z,40.02
2023-05-24T00:12:10.247Z,39.93
2023-05-24T00:13:15.113Z,39.89
2023-05-24T00:14:20.612Z,40.09
2023-05-24T00:15:23.583Z,40.00
2023-05-24T00:16:26.401Z,39.86
2023-05-24T00:17:29.756Z,39.81
2023-05-24T00:18:32.537Z,39.84
2023-05-24T00:19:39.193Z,39.85
2023-05-24T00:20:43.061Z,39.89
2023-05-24T00:21:47.626Z,39.83
2023-05-24T00:22:51.203Z,39.95
2023-05-24T00:23:54.913Z,39.95
2023-05-24T00:24:58.065Z,39.93
2023-05-24T00:26:01.020Z,40.00
2023-05-24T00:27:05.585Z,39.93
2023-05-24T00:28:09.813Z,39.90
2023-05-24T00:29:13.236Z,39.96
2023-05-24T00:30:16.273Z,40.01
2023-05-24T00:31:21.623Z,40.04
2023-05-24T00:32:25.891Z,40.00
2023-05-24T00:33:29.156Z,40.06
2023-05-24T00:34:32.980Z,40.06
2023-05-24T00:35:36.235Z,40.07
2023-05-24T00:36:39.302Z,40.12
2023-05-24T00:37:44.526Z,40.17
2023-05-24T00:38:47.612Z,40.20
2023-05-24T00:39:52.336Z,40.22
2023-05-24T00:40:59.919Z,40.12
2023-05-24T00:42:03.306Z,40.22
2023-05-24T00:43:06.732Z,40.34
2023-05-24T00:44:10.698Z,40.35
2023-05-24T00:45:14.028Z,40.39
2023-05-24T00:46:31.517Z,40.27
2023-05-24T00:47:35.843Z,40.26
2023-05-24T00:48:39.433Z,40.29
2023-05-24T00:49:42.836Z,40.33
2023-05-24T00:50:45.889Z,40.32
2023-05-24T00:51:49.550Z,40.33
2023-05-24T00:52:52.521Z,40.33
2023-05-24T00:53:56.419Z,40.33
2023-05-24T00:54:59.653Z,40.34
2023-05-24T00:56:04.386Z,40.32
2023-05-24T00:57:08.122Z,40.34
2023-05-24T00:58:10.968Z,40.26
2023-05-24T00:59:14.037Z,40.32
2023-05-24T01:00:17.963Z,40.32
2023-05-24T01:01:21.096Z,40.36
2023-05-24T01:02:25.452Z,40.35
2023-05-24T01:03:31.107Z,40.37
2023-05-24T01:04:35.188Z,40.39
2023-05-24T01:05:41.150Z,40.40
2023-05-24T01:06:55.795Z,40.34
2023-05-24T01:08:12.220Z,40.27
2023-05-24T01:09:34.090Z,40.35
2023-05-24T01:12:44.261Z,40.35
2023-05-24T01:14:08.241Z,40.39
2023-05-24T01:15:27.460Z,40.35
2023-05-24T01:16:40.252Z,40.38
2023-05-24T01:17:56.103Z,40.38
2023-05-24T01:19:04.589Z,40.23
2023-05-24T01:20:10.455Z,40.39
2023-05-24T01:23:20.516Z,40.39
2023-05-24T01:24:27.197Z,40.37
2023-05-24T01:25:41.570Z,40.36
2023-05-24T01:27:08.866Z,40.33
2023-05-24T01:28:11.571Z,40.30
2023-05-24T01:29:14.966Z,40.37
2023-05-24T01:30:18.372Z,40.24
2023-05-24T01:31:21.259Z,40.42
2023-05-24T01:32:27.090Z,40.36
2023-05-24T01:33:29.989Z,40.24
2023-05-24T01:34:32.699Z,40.14
2023-05-24T01:35:37.659Z,40.28
2023-05-24T01:36:41.763Z,40.18
2023-05-24T01:37:44.775Z,40.30
2023-05-24T01:38:48.281Z,40.36
2023-05-24T01:39:52.417Z,40.30
2023-05-24T01:40:59.826Z,40.21
2023-05-24T01:42:27.305Z,40.31
2023-05-24T01:43:33.250Z,40.26
2023-05-24T01:46:24.472Z,40.37
2023-05-24T01:47:37.872Z,40.32
2023-05-24T01:48:47.549Z,40.33
2023-05-24T01:49:54.089Z,40.30
2023-05-24T01:51:00.856Z,40.30
2023-05-24T01:53:25.932Z,40.35
2023-05-24T01:54:33.982Z,40.44
2023-05-24T01:55:36.716Z,40.39
2023-05-24T01:56:40.511Z,40.21
2023-05-24T01:57:43.986Z,40.33
2023-05-24T01:58:47.273Z,40.33
2023-05-24T01:59:50.930Z,40.37
2023-05-24T02:00:54.266Z,40.21
2023-05-24T02:01:57.193Z,40.18
2023-05-24T02:03:01.752Z,40.31
2023-05-24T02:04:04.514Z,40.15
2023-05-24T02:05:09.988Z,40.21
2023-05-24T02:06:14.019Z,40.23
2023-05-24T02:07:18.240Z,40.36
2023-05-24T02:08:21.513Z,40.42
2023-05-24T02:09:24.299Z,40.38
2023-05-24T02:10:27.203Z,40.54
2023-05-24T02:11:30.826Z,40.54
2023-05-24T02:12:34.173Z,40.43
2023-05-24T02:13:37.760Z,40.41
2023-05-24T02:14:42.060Z,40.43
2023-05-24T02:15:48.006Z,40.53
2023-05-24T02:16:51.332Z,40.43
2023-05-24T02:17:55.578Z,40.37
2023-05-24T02:18:59.812Z,40.46
2023-05-24T02:20:04.546Z,40.39
2023-05-24T02:21:07.416Z,40.54
2023-05-24T02:22:11.113Z,40.55
2023-05-24T02:23:14.826Z,40.58
2023-05-24T02:24:19.255Z,40.43
2023-05-24T02:25:23.338Z,40.35
2023-05-24T02:26:26.822Z,40.26
2023-05-24T02:27:29.876Z,40.43
2023-05-24T02:28:32.876Z,40.33
2023-05-24T02:29:36.286Z,40.54
2023-05-24T02:30:40.209Z,40.39
2023-05-24T02:31:45.003Z,40.55
2023-05-24T02:32:48.647Z,40.61
2023-05-24T02:33:53.138Z,40.44
2023-05-24T02:34:56.390Z,40.33
2023-05-24T02:36:01.221Z,40.38
2023-05-24T02:37:06.737Z,40.58
2023-05-24T02:38:11.349Z,40.68
2023-05-24T02:39:16.605Z,40.66
2023-05-24T02:40:19.670Z,40.83
2023-05-24T02:41:22.668Z,40.89
2023-05-24T02:42:26.577Z,41.04
2023-05-24T02:43:31.139Z,41.10
2023-05-24T02:44:34.372Z,41.21
2023-05-24T02:45:37.314Z,41.37
2023-05-24T02:46:40.878Z,41.46
2023-05-24T02:47:43.736Z,41.55
2023-05-24T02:48:46.807Z,41.67
2023-05-24T02:49:50.076Z,41.70
2023-05-24T02:50:53.973Z,41.56
2023-05-24T02:51:57.412Z,41.80
2023-05-24T02:53:00.508Z,42.23
2023-05-24T02:54:05.083Z,42.23
2023-05-24T02:55:09.413Z,41.98
2023-05-24T02:56:13.624Z,41.77
2023-05-24T02:57:17.731Z,41.80
2023-05-24T02:58:21.349Z,41.77
2023-05-24T02:59:26.159Z,41.74
2023-05-24T03:00:29.203Z,41.55
2023-05-24T03:01:33.673Z,41.38
2023-05-24T03:03:51.478Z,41.61
2023-05-24T03:04:55.397Z,41.54
2023-05-24T03:05:58.851Z,41.32
2023-05-24T03:07:02.710Z,41.32
2023-05-24T03:08:07.313Z,41.03
2023-05-24T03:09:10.463Z,41.00
2023-05-24T03:10:15.969Z,40.91
2023-05-24T03:11:21.096Z,40.91
2023-05-24T03:12:24.027Z,40.79
2023-05-24T03:13:27.521Z,40.76
2023-05-24T03:14:31.690Z,40.77
2023-05-24T03:15:34.654Z,40.81
2023-05-24T03:16:38.122Z,40.86
2023-05-24T03:17:41.470Z,41.08
2023-05-24T03:18:45.601Z,41.00
2023-05-24T03:19:48.622Z,41.23
2023-05-24T03:20:51.469Z,41.14
2023-05-24T03:21:55.159Z,41.39
2023-05-24T03:22:59.291Z,41.46
2023-05-24T03:25:15.250Z,41.62
2023-05-24T03:27:31.857Z,41.51
2023-05-24T03:28:35.720Z,41.57
2023-05-24T03:29:39.432Z,41.55
2023-05-24T03:30:42.963Z,41.50
2023-05-24T03:31:46.077Z,41.46
2023-05-24T03:32:49.325Z,41.45
2023-05-24T03:33:53.341Z,41.45
2023-05-24T03:34:58.652Z,41.40
2023-05-24T03:36:04.069Z,41.17
2023-05-24T03:37:07.655Z,41.23
2023-05-24T03:39:23.960Z,41.33
2023-05-24T03:40:30.447Z,41.12
2023-05-24T03:41:34.961Z,41.26
2023-05-24T03:42:39.060Z,41.27
2023-05-24T03:43:42.658Z,41.31
2023-05-24T03:44:47.640Z,41.29
2023-05-24T03:45:51.712Z,41.19
2023-05-24T03:46:55.451Z,41.17
2023-05-24T03:47:58.298Z,41.19
2023-05-24T03:49:02.309Z,40.78
2023-05-24T03:50:07.077Z,40.78
2023-05-24T03:51:10.953Z,41.10
2023-05-24T03:52:14.136Z,41.10
2023-05-24T03:53:17.875Z,41.10
2023-05-24T03:54:20.537Z,41.14
2023-05-24T03:55:23.102Z,41.00
2023-05-24T03:56:28.275Z,41.04
2023-05-24T03:57:31.502Z,40.98
2023-05-24T03:58:34.341Z,41.13
2023-05-24T03:59:38.324Z,41.07
2023-05-24T04:00:42.647Z,40.97
2023-05-24T04:01:46.870Z,40.93
2023-05-24T04:02:50.889Z,40.98
2023-05-24T04:03:55.910Z,41.00
2023-05-24T04:05:00.605Z,41.11
2023-05-24T04:06:03.633Z,41.24
2023-05-24T04:07:09.967Z,41.30
2023-05-24T04:08:14.661Z,41.12
2023-05-24T04:09:19.031Z,41.07
2023-05-24T04:10:22.504Z,41.05
2023-05-24T04:11:28.717Z,41.15
2023-05-24T04:12:32.469Z,41.11
2023-05-24T04:13:35.619Z,41.34
2023-05-24T04:14:38.724Z,41.31
2023-05-24T04:15:42.843Z,41.01
2023-05-24T04:16:49.226Z,41.01
2023-05-24T04:17:55.582Z,41.12
2023-05-24T04:19:00.574Z,41.14
2023-05-24T04:20:06.040Z,41.10
2023-05-24T04:21:08.957Z,41.27
2023-05-24T04:22:12.808Z,41.41
2023-05-24T04:23:15.887Z,41.40
2023-05-24T04:24:20.114Z,41.46
2023-05-24T04:25:23.531Z,41.36
2023-05-24T04:26:27.020Z,41.49
2023-05-24T04:27:31.142Z,41.55
2023-05-24T04:28:33.882Z,41.38
2023-05-24T04:29:38.794Z,41.37
2023-05-24T04:30:42.784Z,41.52
2023-05-24T04:31:49.006Z,41.41
2023-05-24T04:32:53.260Z,41.53
2023-05-24T04:33:58.646Z,41.37
2023-05-24T04:35:03.284Z,41.38
2023-05-24T04:36:07.737Z,41.32
2023-05-24T04:37:10.289Z,41.37
2023-05-24T04:38:14.258Z,41.24
2023-05-24T04:39:18.909Z,41.12
2023-05-24T04:40:22.658Z,41.31
2023-05-24T04:41:26.472Z,41.29
2023-05-24T04:42:31.136Z,41.30
2023-05-24T04:43:34.312Z,41.32
2023-05-24T04:44:37.816Z,41.53
2023-05-24T04:45:41.276Z,41.48
2023-05-24T04:46:44.677Z,41.53
2023-05-24T04:47:47.528Z,41.60
2023-05-24T04:48:50.464Z,41.61
2023-05-24T04:49:54.791Z,41.67
2023-05-24T04:50:58.902Z,41.63
2023-05-24T04:52:02.324Z,41.59
2023-05-24T04:53:06.327Z,41.73
2023-05-24T04:55:22.242Z,41.86
2023-05-24T04:56:25.308Z,41.91
2023-05-24T04:57:29.610Z,41.84
2023-05-24T04:58:32.835Z,41.78
2023-05-24T04:59:36.519Z,41.85
2023-05-24T05:00:41.030Z,41.43
2023-05-24T05:01:44.045Z,41.65
2023-05-24T05:02:47.476Z,41.75
2023-05-24T05:03:50.873Z,41.83
2023-05-24T05:04:53.772Z,41.85
2023-05-24T05:05:57.436Z,41.86
2023-05-24T05:07:00.717Z,41.84
2023-05-24T05:08:04.404Z,41.79
2023-05-24T05:09:12.529Z,41.83
2023-05-24T05:10:16.508Z,41.83
2023-05-24T05:11:20.029Z,41.83
2023-05-24T05:12:24.018Z,41.85
2023-05-24T05:13:27.390Z,41.82
2023-05-24T05:14:30.854Z,41.84
2023-05-24T05:15:34.509Z,41.83
2023-05-24T05:16:39.115Z,41.83
2023-05-24T05:17:43.227Z,41.86
2023-05-24T05:18:48.481Z,41.91
2023-05-24T05:19:51.367Z,42.05
2023-05-24T05:20:54.410Z,41.97
2023-05-24T05:21:58.159Z,42.04
2023-05-24T05:23:01.306Z,42.00
2023-05-24T05:24:04.731Z,42.02
2023-05-24T05:25:08.527Z,42.56
2023-05-24T05:26:11.922Z,42.56
2023-05-24T05:27:14.955Z,42.15
2023-05-24T05:28:20.025Z,42.21
2023-05-24T05:29:24.544Z,42.20
2023-05-24T05:30:27.723Z,42.23
2023-05-24T05:31:32.336Z,42.24
2023-05-24T05:32:35.813Z,42.22
2023-05-24T05:33:39.447Z,42.21
2023-05-24T05:34:43.090Z,42.16
2023-05-24T05:35:46.947Z,42.10
2023-05-24T05:36:51.411Z,42.06
2023-05-24T05:37:54.346Z,42.06
2023-05-24T05:38:57.506Z,41.79
2023-05-24T05:40:00.230Z,41.79
2023-05-24T05:41:03.795Z,42.05
2023-05-24T05:42:06.923Z,42.01
2023-05-24T05:43:09.585Z,41.96
2023-05-24T05:44:13.403Z,41.93
2023-05-24T05:45:17.575Z,41.90
2023-05-24T05:46:21.572Z,41.89
2023-05-24T05:47:25.036Z,41.88
2023-05-24T05:48:28.361Z,41.87
2023-05-24T05:49:33.509Z,41.86
2023-05-24T05:50:38.002Z,41.84
2023-05-24T05:51:41.544Z,41.83
2023-05-24T05:52:46.216Z,41.81
2023-05-24T05:53:49.896Z,41.78
2023-05-24T05:54:53.922Z,41.78
2023-05-24T05:55:56.744Z,41.78
2023-05-24T05:57:01.530Z,41.81
2023-05-24T05:58:05.461Z,41.82
2023-05-24T05:59:09.649Z,41.92
2023-05-24T06:00:14.047Z,41.92
2023-05-24T06:01:17.708Z,41.89
2023-05-24T06:02:22.686Z,42.01
2023-05-24T06:03:27.586Z,42.03
2023-05-24T06:04:31.266Z,42.01
2023-05-24T06:05:36.116Z,41.99
2023-05-24T06:06:39.030Z,42.00
2023-05-24T06:07:41.985Z,42.02
2023-05-24T06:08:45.536Z,42.02
2023-05-24T06:09:48.952Z,42.00
2023-05-24T06:10:53.102Z,42.05
2023-05-24T06:11:57.015Z,42.05
2023-05-24T06:13:03.001Z,42.06
2023-05-24T06:14:06.554Z,42.05
2023-05-24T06:15:09.956Z,42.10
2023-05-24T06:16:14.376Z,42.06
2023-05-24T06:17:18.045Z,42.11
2023-05-24T06:18:20.810Z,42.15
2023-05-24T06:19:25.009Z,42.03
2023-05-24T06:20:28.468Z,42.17
2023-05-24T06:21:32.232Z,42.20
2023-05-24T06:22:36.073Z,42.10
2023-05-24T06:23:43.649Z,41.97
2023-05-24T06:24:46.532Z,41.97
2023-05-24T06:25:50.716Z,41.92
2023-05-24T06:26:53.435Z,41.91
2023-05-24T06:27:56.962Z,41.88
2023-05-24T06:29:00.352Z,41.85
2023-05-24T06:30:03.699Z,41.80
2023-05-24T06:31:06.432Z,41.75
2023-05-24T06:32:10.683Z,41.74
2023-05-24T06:33:14.114Z,41.71
2023-05-24T06:34:21.337Z,41.69
2023-05-24T06:35:26.410Z,41.61
2023-05-24T06:36:30.917Z,41.48
2023-05-24T06:37:33.548Z,41.48
2023-05-24T06:38:36.283Z,41.39
2023-05-24T06:39:40.667Z,41.36
2023-05-24T06:40:44.519Z,41.40
2023-05-24T06:41:50.934Z,41.37
2023-05-24T06:42:58.126Z,41.37
2023-05-24T06:44:02.474Z,41.35
2023-05-24T06:45:08.754Z,41.34
2023-05-24T06:46:13.169Z,41.31
2023-05-24T06:47:16.760Z,41.30
2023-05-24T06:48:21.690Z,41.26
2023-05-24T06:49:25.252Z,40.96
2023-05-24T06:50:28.222Z,40.96
2023-05-24T06:51:33.172Z,41.24
2023-05-24T06:52:36.864Z,41.21
2023-05-24T06:53:41.995Z,41.22
2023-05-24T06:54:45.673Z,41.18
2023-05-24T06:55:49.344Z,41.18
2023-05-24T06:56:52.285Z,41.18
2023-05-24T06:57:54.975Z,41.18
2023-05-24T06:58:59.329Z,41.19
2023-05-24T07:00:04.320Z,41.19
2023-05-24T07:01:07.115Z,41.15
2023-05-24T07:02:11.211Z,41.15
2023-05-24T07:03:13.840Z,41.14
2023-05-24T07:04:18.337Z,41.16
2023-05-24T07:05:21.845Z,41.19
2023-05-24T07:06:25.321Z,41.41
2023-05-24T07:07:28.543Z,41.44
2023-05-24T07:08:32.021Z,41.46
2023-05-24T07:09:35.648Z,41.56
2023-05-24T07:10:40.606Z,41.61
2023-05-24T07:11:45.294Z,41.67
2023-05-24T07:12:48.943Z,41.72
2023-05-24T07:13:52.699Z,41.82
2023-05-24T07:14:55.729Z,41.89
2023-05-24T07:15:58.733Z,41.63
2023-05-24T07:17:02.542Z,41.79
2023-05-24T07:18:06.571Z,41.81
2023-05-24T07:19:09.304Z,41.82
2023-05-24T07:20:13.279Z,42.22
2023-05-24T07:21:17.008Z,42.22
2023-05-24T07:22:19.660Z,41.80
2023-05-24T07:23:23.061Z,41.86
2023-05-24T07:24:26.643Z,41.85
2023-05-24T07:25:30.241Z,41.80
2023-05-24T07:26:33.659Z,41.79
2023-05-24T07:27:37.112Z,41.75
2023-05-24T07:28:40.974Z,41.78
2023-05-24T07:29:46.979Z,41.73
2023-05-24T07:30:49.722Z,41.71
2023-05-24T07:31:55.601Z,41.77
2023-05-24T07:32:58.252Z,41.82
2023-05-24T07:34:01.908Z,41.38
2023-05-24T07:35:06.108Z,41.66
2023-05-24T07:36:10.657Z,41.67
2023-05-24T07:37:14.247Z,41.70
2023-05-24T07:38:17.957Z,41.72
2023-05-24T07:39:20.861Z,41.77
2023-05-24T07:40:23.844Z,41.76
2023-05-24T07:41:28.191Z,41.77
2023-05-24T07:42:32.442Z,41.73
2023-05-24T07:43:37.772Z,41.72
2023-05-24T07:44:41.856Z,41.72
2023-05-24T07:45:45.808Z,41.71
2023-05-24T07:46:50.438Z,41.77
2023-05-24T07:47:56.018Z,41.73
2023-05-24T07:48:59.078Z,41.71
2023-05-24T07:50:03.975Z,41.65
2023-05-24T07:51:07.795Z,41.64
2023-05-24T07:52:10.833Z,41.60
2023-05-24T07:53:14.787Z,41.41
2023-05-24T07:54:19.587Z,41.47
2023-05-24T07:55:22.314Z,41.19
2023-05-24T07:56:25.049Z,41.35
2023-05-24T07:57:28.904Z,41.42
2023-05-24T07:58:33.180Z,41.46
2023-05-24T07:59:36.222Z,41.48
2023-05-24T08:00:39.132Z,41.48
2023-05-24T08:01:42.774Z,41.49
2023-05-24T08:02:48.692Z,41.49
2023-05-24T08:03:52.355Z,41.51
2023-05-24T08:04:55.357Z,41.51
2023-05-24T08:05:58.446Z,41.53
2023-05-24T08:07:02.975Z,41.55
2023-05-24T08:08:06.252Z,41.52
2023-05-24T08:09:10.929Z,41.14
2023-05-24T08:10:16.062Z,41.39
2023-05-24T08:11:19.009Z,41.16
2023-05-24T08:12:21.986Z,41.17
2023-05-24T08:13:26.154Z,41.21
2023-05-24T08:14:28.757Z,41.18
2023-05-24T08:15:31.947Z,41.26
2023-05-24T08:16:35.809Z,41.26
2023-05-24T08:17:39.227Z,41.17
2023-05-24T08:18:42.011Z,41.18
2023-05-24T08:19:46.212Z,41.13
2023-05-24T08:20:49.022Z,41.16
2023-05-24T08:21:56.880Z,41.07
2023-05-24T08:23:00.460Z,41.08
2023-05-24T08:24:06.194Z,41.08
2023-05-24T08:25:10.799Z,41.17
2023-05-24T08:26:16.100Z,41.27
2023-05-24T08:27:23.432Z,41.36
2023-05-24T08:28:27.865Z,41.41
2023-05-24T08:29:32.329Z,41.45
2023-05-24T08:30:38.399Z,41.45
2023-05-24T08:31:41.824Z,41.47
2023-05-24T08:32:46.069Z,41.45
2023-05-24T08:33:50.439Z,41.42
2023-05-24T08:35:00.430Z,41.10
2023-05-24T08:35:58.660Z,41.10
2023-05-24T08:38:17.877Z,41.45
2023-05-24T08:39:21.175Z,41.44
2023-05-24T08:40:24.877Z,41.45
2023-05-24T08:41:28.991Z,41.41
2023-05-24T08:42:31.714Z,41.32
2023-05-24T08:43:34.868Z,41.26
2023-05-24T08:44:48.902Z,41.20
2023-05-24T08:45:52.364Z,41.06
2023-05-24T08:46:56.030Z,41.01
2023-05-24T08:48:01.074Z,41.20
2023-05-24T08:49:05.442Z,41.05
2023-05-24T08:50:08.926Z,41.20
2023-05-24T08:51:19.254Z,41.23
2023-05-24T08:52:23.249Z,41.28
2023-05-24T08:53:26.397Z,41.28
2023-05-24T08:54:30.710Z,41.29
2023-05-24T08:55:34.082Z,41.19
2023-05-24T08:56:39.228Z,41.11
2023-05-24T08:57:42.470Z,41.04
2023-05-24T08:58:46.944Z,40.98
2023-05-24T08:59:50.508Z,40.98
2023-05-24T09:00:55.026Z,40.96
2023-05-24T09:01:58.373Z,40.92
2023-05-24T09:03:02.593Z,40.93
2023-05-24T09:04:05.967Z,40.93
2023-05-24T09:06:25.142Z,40.86
2023-05-24T09:07:29.385Z,40.87
2023-05-24T09:08:35.710Z,40.87
2023-05-24T09:09:43.458Z,40.88
2023-05-24T09:10:54.578Z,40.85
2023-05-24T09:11:51.846Z,40.71
2023-05-24T09:12:57.280Z,40.49
2023-05-24T09:14:02.020Z,40.29
2023-05-24T09:15:06.013Z,40.29
2023-05-24T09:16:09.378Z,39.84
2023-05-24T09:17:14.435Z,40.15
2023-05-24T09:18:17.595Z,40.13
2023-05-24T09:19:20.567Z,40.09
2023-05-24T09:20:23.339Z,40.18
2023-05-24T09:21:28.956Z,40.18
2023-05-24T09:22:38.781Z,40.26
2023-05-24T09:23:40.939Z,40.07
2023-05-24T09:24:45.993Z,40.10
2023-05-24T09:25:48.724Z,40.07
2023-05-24T09:26:51.942Z,40.13
2023-05-24T09:27:55.843Z,39.92
2023-05-24T09:29:00.629Z,39.84
2023-05-24T09:30:07.620Z,39.43
2023-05-24T09:31:12.166Z,39.62
2023-05-24T09:32:16.213Z,39.60
2023-05-24T09:33:19.486Z,39.68
2023-05-24T09:34:23.122Z,39.70
2023-05-24T09:35:27.503Z,39.83
2023-05-24T09:36:32.636Z,39.93
2023-05-24T09:37:36.201Z,39.90
2023-05-24T09:38:39.326Z,39.96
2023-05-24T09:39:51.092Z,40.01
2023-05-24T09:40:59.929Z,39.60
2023-05-24T09:42:04.142Z,39.72
2023-05-24T09:43:09.562Z,39.77
2023-05-24T09:44:16.226Z,39.92
2023-05-24T09:45:20.768Z,40.31
2023-05-24T09:46:24.056Z,40.47
2023-05-24T09:47:32.049Z,40.63
2023-05-24T09:48:35.236Z,40.75
2023-05-24T09:49:38.792Z,40.92
2023-05-24T09:50:42.697Z,40.88
2023-05-24T09:51:45.693Z,40.88
2023-05-24T09:52:50.411Z,40.75
2023-05-24T09:53:57.905Z,40.49
2023-05-24T09:55:01.797Z,40.07
2023-05-24T09:56:10.132Z,39.76
2023-05-24T09:57:12.774Z,39.78
2023-05-24T09:59:33.766Z,39.42
2023-05-24T10:00:39.665Z,39.13
2023-05-24T10:01:45.348Z,39.11
2023-05-24T10:02:52.800Z,39.19
2023-05-24T10:03:57.637Z,39.23
2023-05-24T10:05:02.841Z,39.25
2023-05-24T10:06:10.872Z,39.21
2023-05-24T10:07:13.635Z,39.24
2023-05-24T10:08:18.092Z,39.33
2023-05-24T10:09:20.841Z,39.41
2023-05-24T10:10:29.680Z,39.47
2023-05-24T10:11:36.964Z,39.57
2023-05-24T10:12:42.517Z,39.62
2023-05-24T10:13:45.538Z,39.83
2023-05-24T10:14:49.997Z,40.00
2023-05-24T10:15:53.489Z,39.85
2023-05-24T10:16:56.386Z,41.00
2023-05-24T10:18:01.096Z,41.23
2023-05-24T10:19:05.906Z,41.35
2023-05-24T10:20:11.919Z,41.57
2023-05-24T10:21:15.819Z,41.41
2023-05-24T10:22:18.933Z,40.82
2023-05-24T10:23:21.495Z,40.08
2023-05-24T10:24:25.696Z,40.82
2023-05-24T10:25:28.627Z,41.17
2023-05-24T10:26:33.155Z,41.22
2023-05-24T10:27:38.118Z,41.23
2023-05-24T10:28:44.258Z,41.47
2023-05-24T10:29:58.260Z,41.61
2023-05-24T10:31:06.132Z,40.59
2023-05-24T10:32:09.755Z,41.44
2023-05-24T10:33:12.524Z,41.37
2023-05-24T10:34:16.834Z,40.56
2023-05-24T10:35:20.787Z,40.63
2023-05-24T10:36:25.751Z,40.70
2023-05-24T10:37:28.469Z,40.74
2023-05-24T10:38:33.144Z,40.70
2023-05-24T10:39:37.321Z,40.60
2023-05-24T10:41:57.438Z,40.43
2023-05-24T10:44:34.368Z,40.66
2023-05-24T10:45:39.569Z,40.52
2023-05-24T10:47:12.679Z,41.14
2023-05-24T10:48:27.820Z,41.44
2023-05-24T10:49:30.821Z,41.26
2023-05-24T10:50:33.793Z,41.39
2023-05-24T10:51:41.323Z,41.39
2023-05-24T10:52:44.093Z,41.50
2023-05-24T10:53:46.956Z,41.53
2023-05-24T10:56:20.898Z,40.82
2023-05-24T10:57:25.086Z,40.77
2023-05-24T10:58:59.525Z,40.68
2023-05-24T11:00:34.717Z,40.70
2023-05-24T11:01:34.380Z,40.64
2023-05-24T11:02:37.476Z,40.50
2023-05-24T11:03:43.701Z,40.40
2023-05-24T11:04:47.481Z,40.40
2023-05-24T11:05:54.303Z,40.47
2023-05-24T11:06:59.870Z,40.40
2023-05-24T11:08:03.599Z,40.39
2023-05-24T11:10:31.160Z,39.70
2023-05-24T11:11:34.433Z,39.77
2023-05-24T11:12:38.850Z,39.66
2023-05-24T11:13:43.513Z,39.66
2023-05-24T11:14:50.796Z,39.52
2023-05-24T11:15:54.299Z,39.49
2023-05-24T11:16:59.466Z,39.51
2023-05-24T11:18:12.211Z,39.48
2023-05-24T11:19:23.881Z,39.39
2023-05-24T11:20:26.890Z,39.43
2023-05-24T11:21:29.864Z,39.33
2023-05-24T11:22:33.582Z,39.37
2023-05-24T11:23:38.353Z,39.38
2023-05-24T11:24:42.826Z,39.22
2023-05-24T11:25:49.881Z,38.91
2023-05-24T11:26:54.097Z,39.09
2023-05-24T11:27:58.408Z,39.04
2023-05-24T11:29:04.038Z,38.87
2023-05-24T11:30:07.321Z,38.92
2023-05-24T11:31:11.409Z,39.01
2023-05-24T11:32:19.692Z,38.99
2023-05-24T11:33:23.515Z,39.06
2023-05-24T11:34:27.635Z,39.19
2023-05-24T11:35:31.462Z,39.22
2023-05-24T11:36:35.894Z,39.09
2023-05-24T11:38:51.811Z,38.98
2023-05-24T11:39:56.230Z,38.87
2023-05-24T11:41:00.009Z,38.90
2023-05-24T11:42:09.576Z,38.88
2023-05-24T11:43:19.985Z,38.90
2023-05-24T11:44:23.215Z,38.63
2023-05-24T11:45:28.098Z,38.64
2023-05-24T11:46:31.292Z,38.66
2023-05-24T11:47:36.117Z,38.72
2023-05-24T11:48:40.815Z,38.66
2023-05-24T11:49:44.514Z,38.40
2023-05-24T11:50:50.837Z,38.38
2023-05-24T11:51:57.198Z,38.42
2023-05-24T11:53:04.493Z,38.42
2023-05-24T11:54:08.410Z,38.33
2023-05-24T11:55:14.963Z,38.36
2023-05-24T11:56:21.253Z,38.22
2023-05-24T11:57:33.890Z,38.24
2023-05-24T11:58:42.194Z,37.79
2023-05-24T11:59:45.493Z,37.69
2023-05-24T12:00:48.223Z,37.69
2023-05-24T12:01:59.627Z,37.74
2023-05-24T12:03:04.468Z,37.75
2023-05-24T12:05:21.863Z,37.85
2023-05-24T12:07:40.163Z,37.46
2023-05-24T12:08:43.216Z,37.69
2023-05-24T12:09:46.214Z,37.84
2023-05-24T12:10:51.033Z,37.86
2023-05-24T12:11:53.766Z,37.80
2023-05-24T12:12:59.012Z,37.84
2023-05-24T12:14:02.344Z,37.78
2023-05-24T12:15:07.746Z,37.56
2023-05-24T12:16:13.361Z,37.43
2023-05-24T12:17:17.467Z,37.29
2023-05-24T12:18:24.199Z,36.95
2023-05-24T12:19:36.143Z,36.71
2023-05-24T12:20:39.711Z,36.84
2023-05-24T12:21:43.651Z,36.35
2023-05-24T12:22:53.772Z,36.52
2023-05-24T12:23:58.365Z,36.74
2023-05-24T12:25:04.307Z,36.98
2023-05-24T12:26:08.582Z,37.05
2023-05-24T12:27:12.418Z,36.79
2023-05-24T12:28:17.072Z,36.97
2023-05-24T12:29:20.180Z,37.20
2023-05-24T12:30:26.481Z,37.38
2023-05-24T12:31:29.054Z,37.34
2023-05-24T12:32:33.359Z,37.49
2023-05-24T12:33:36.877Z,37.26
2023-05-24T12:34:43.877Z,37.53
2023-05-24T12:35:49.535Z,37.34
2023-05-24T12:36:54.046Z,37.37
2023-05-24T12:37:59.608Z,37.68
2023-05-24T12:39:07.455Z,37.99
2023-05-24T12:40:20.700Z,38.16
2023-05-24T12:41:23.647Z,38.11
2023-05-24T12:42:28.793Z,38.13
2023-05-24T12:43:31.786Z,38.09
2023-05-24T12:44:37.780Z,38.22
2023-05-24T12:45:41.944Z,38.32
2023-05-24T12:46:45.139Z,38.23
2023-05-24T12:47:52.367Z,38.14
2023-05-24T12:48:55.748Z,38.07
2023-05-24T12:49:59.433Z,37.96
2023-05-24T12:51:03.827Z,37.83
2023-05-24T12:52:07.299Z,37.80
2023-05-24T12:53:11.449Z,37.76
2023-05-24T12:54:14.700Z,37.81
2023-05-24T12:56:35.849Z,37.96
2023-05-24T12:57:38.828Z,37.97
2023-05-24T12:58:41.603Z,37.93
2023-05-24T12:59:44.772Z,37.83
2023-05-24T13:01:02.258Z,37.80
2023-05-24T13:02:06.341Z,37.70
2023-05-24T13:03:09.738Z,37.57
2023-05-24T13:04:16.209Z,37.78
2023-05-24T13:05:19.078Z,37.75
2023-05-24T13:06:22.573Z,37.63
2023-05-24T13:07:25.211Z,37.64
2023-05-24T13:08:30.891Z,37.63
2023-05-24T13:09:33.723Z,37.72
2023-05-24T13:10:36.753Z,37.70
2023-05-24T13:11:40.421Z,37.75
2023-05-24T13:12:44.063Z,37.85
2023-05-24T13:13:47.022Z,37.89
2023-05-24T13:14:52.691Z,37.96
2023-05-24T13:15:54.384Z,38.01
2023-05-24T13:16:57.269Z,37.90
2023-05-24T13:18:00.431Z,37.94
2023-05-24T13:19:03.696Z,37.93
2023-05-24T13:21:23.839Z,38.07
2023-05-24T13:22:26.419Z,38.10
2023-05-24T13:23:29.203Z,38.16
2023-05-24T13:24:31.837Z,38.20
2023-05-24T13:25:35.143Z,38.24
2023-05-24T13:26:38.494Z,38.24
2023-05-24T13:27:41.560Z,38.30
2023-05-24T13:29:04.998Z,38.13
2023-05-24T13:30:00.378Z,38.07
2023-05-24T13:30:56.147Z,38.09
2023-05-24T13:31:58.900Z,38.06
2023-05-24T13:33:02.465Z,38.11
2023-05-24T13:34:06.737Z,38.14
2023-05-24T13:35:13.681Z,38.15
2023-05-24T13:36:17.588Z,38.13
2023-05-24T13:37:20.633Z,38.18
2023-05-24T13:38:23.451Z,38.23
2023-05-24T13:39:28.255Z,38.19
2023-05-24T13:40:32.676Z,38.23
2023-05-24T13:41:38.290Z,37.80
2023-05-24T13:42:41.597Z,37.84
2023-05-24T13:43:45.920Z,37.71
2023-05-24T13:44:48.791Z,37.37
2023-05-24T13:45:52.796Z,37.49
2023-05-24T13:46:56.004Z,37.43
2023-05-24T13:48:03.599Z,37.43
2023-05-24T13:49:06.928Z,37.45
2023-05-24T13:50:10.821Z,37.35
2023-05-24T13:51:14.032Z,37.31
2023-05-24T13:52:18.344Z,37.24
2023-05-24T13:53:22.528Z,36.86
2023-05-24T13:54:26.592Z,36.70
2023-05-24T13:55:29.877Z,37.04
2023-05-24T13:56:35.843Z,36.78
2023-05-24T13:57:51.034Z,36.42
2023-05-24T13:58:45.255Z,36.33
2023-05-24T13:59:48.191Z,36.08
2023-05-24T14:00:51.141Z,36.08
2023-05-24T14:01:54.730Z,36.41
2023-05-24T14:02:58.656Z,36.06
2023-05-24T14:04:03.177Z,36.17
2023-05-24T14:05:24.755Z,36.26
2023-05-24T14:06:13.036Z,36.20
2023-05-24T14:07:18.120Z,36.23
2023-05-24T14:08:21.027Z,36.25
2023-05-24T14:09:25.402Z,36.29
2023-05-24T14:10:28.588Z,36.21
2023-05-24T14:11:32.994Z,36.25
2023-05-24T14:12:35.724Z,36.13
2023-05-24T14:14:59.627Z,36.20
2023-05-24T14:15:59.045Z,36.22
2023-05-24T14:17:05.687Z,36.19
2023-05-24T14:18:10.306Z,36.03
2023-05-24T14:19:14.272Z,36.16
2023-05-24T14:21:28.720Z,36.50
2023-05-24T14:22:31.923Z,36.73
2023-05-24T14:23:34.660Z,36.71